createdAt,value
2023-04-06T00:02:54.830Z,100621.94
2023-04-06T00:07:56.988Z,100621.34
2023-04-06T00:12:59.675Z,100623.00
2023-04-06T00:18:01.384Z,100623.09
2023-04-06T00:23:02.950Z,100622.69
2023-04-06T00:28:04.650Z,100622.88
2023-04-06T00:33:06.373Z,100612.59
2023-04-06T00:38:07.888Z,100618.28
2023-04-06T00:43:12.257Z,100617.97
2023-04-06T00:48:14.205Z,100620.09
2023-04-06T00:53:15.721Z,100622.22
2023-04-06T00:58:17.233Z,100613.88
2023-04-06T01:03:24.734Z,100612.75
2023-04-06T01:08:26.642Z,100606.66
2023-04-06T01:13:35.537Z,100617.09
2023-04-06T01:18:40.184Z,100610.31
2023-04-06T01:23:58.127Z,100607.22
2023-04-06T01:29:07.112Z,100598.28
2023-04-06T01:34:08.875Z,100591.63
2023-04-06T01:39:10.840Z,100586.69
2023-04-06T01:44:18.129Z,100583.44
2023-04-06T01:49:22.021Z,100570.03
2023-04-06T01:54:28.407Z,100569.91
2023-04-06T01:59:29.935Z,100561.44
2023-04-06T02:04:32.757Z,100561.16
2023-04-06T02:09:43.810Z,100559.44
2023-04-06T02:14:52.644Z,100560.47
2023-04-06T02:19:54.375Z,100552.97
2023-04-06T02:24:55.904Z,100555.63
2023-04-06T02:29:57.430Z,100553.78
2023-04-06T02:34:59.000Z,100558.44
2023-04-06T02:40:01.179Z,100550.69
2023-04-06T02:45:06.078Z,100552.94
2023-04-06T02:50:13.331Z,100550.50
2023-04-06T02:55:22.649Z,100550.09
2023-04-06T03:00:25.044Z,100552.34
2023-04-06T03:05:26.700Z,100546.69
2023-04-06T03:10:28.478Z,100539.75
2023-04-06T03:15:30.802Z,100543.44
2023-04-06T03:20:44.635Z,100535.94
2023-04-06T03:25:46.466Z,100544.13
2023-04-06T03:30:51.879Z,100539.72
2023-04-06T03:36:01.021Z,100541.84
2023-04-06T03:41:03.305Z,100546.06
2023-04-06T03:46:04.987Z,100540.09
2023-04-06T03:51:06.677Z,100547.06
2023-04-06T03:56:08.318Z,100553.94
2023-04-06T04:01:09.856Z,100554.19
2023-04-06T04:06:11.421Z,100562.53
2023-04-06T04:11:16.792Z,100557.91
2023-04-06T04:16:19.359Z,100567.06
2023-04-06T04:21:21.094Z,100573.84
2023-04-06T04:26:22.734Z,100580.00
2023-04-06T04:31:24.418Z,100579.28
2023-04-06T04:36:31.125Z,100580.25
2023-04-06T04:41:35.288Z,100584.91
2023-04-06T04:46:37.325Z,100586.63
2023-04-06T04:51:39.969Z,100595.38
2023-04-06T04:57:04.495Z,100600.84
2023-04-06T05:02:17.270Z,100595.38
2023-04-06T05:07:38.740Z,100606.13
2023-04-06T05:12:42.775Z,100609.66
2023-04-06T05:17:46.259Z,100605.47
2023-04-06T05:22:52.624Z,100616.66
2023-04-06T05:27:54.302Z,100617.97
2023-04-06T05:33:07.517Z,100622.53
2023-04-06T05:38:22.238Z,100633.88
2023-04-06T05:43:24.429Z,100640.31
2023-04-06T05:48:29.963Z,100641.88
2023-04-06T05:53:32.132Z,100636.91
2023-04-06T05:58:35.289Z,100639.09
2023-04-06T06:03:39.543Z,100635.88
2023-04-06T06:08:41.981Z,100635.28
2023-04-06T06:13:48.303Z,100637.72
2023-04-06T06:18:50.261Z,100635.22
2023-04-06T06:23:52.280Z,100631.44
2023-04-06T06:28:56.190Z,100624.25
2023-04-06T06:33:58.518Z,100624.91
2023-04-06T06:39:01.668Z,100624.50
2023-04-06T06:50:22.488Z,100616.56
2023-04-06T06:55:24.324Z,100617.44
2023-04-06T07:00:25.985Z,100606.94
2023-04-06T07:05:29.137Z,100603.81
2023-04-06T07:10:33.030Z,100599.47
2023-04-06T07:15:34.556Z,100595.84
2023-04-06T07:20:37.239Z,100594.50
2023-04-06T07:25:40.429Z,100586.88
2023-04-06T07:30:43.337Z,100586.94
2023-04-06T07:35:46.558Z,100590.44
2023-04-06T07:40:48.705Z,100578.50
2023-04-06T07:45:50.479Z,100573.88
2023-04-06T07:50:52.713Z,100584.78
2023-04-06T07:55:56.700Z,100584.06
2023-04-06T08:00:58.866Z,100571.72
2023-04-06T08:06:00.454Z,100575.72
2023-04-06T08:11:03.658Z,100569.94
2023-04-06T08:16:05.750Z,100572.16
2023-04-06T08:21:07.329Z,100554.59
2023-04-06T08:26:08.856Z,100555.47
2023-04-06T08:31:10.500Z,100552.13
2023-04-06T08:36:17.818Z,100552.97
2023-04-06T08:41:21.819Z,100545.00
2023-04-06T08:46:29.960Z,100541.03
2023-04-06T08:51:32.631Z,100550.84
2023-04-06T08:56:38.225Z,100554.97
2023-04-06T09:01:44.459Z,100547.50
2023-04-06T09:06:46.055Z,100538.09
2023-04-06T09:11:49.589Z,100547.41
2023-04-06T09:16:51.134Z,100533.56
2023-04-06T09:22:05.603Z,100520.16
2023-04-06T09:27:07.156Z,100509.44
2023-04-06T09:32:11.540Z,100522.94
2023-04-06T09:37:17.269Z,100517.91
2023-04-06T09:42:29.324Z,100507.03
2023-04-06T09:47:34.257Z,100518.63
2023-04-06T09:52:43.411Z,100513.00
2023-04-06T09:58:04.356Z,100506.66
2023-04-06T10:03:16.118Z,100511.63
2023-04-06T10:08:19.645Z,100517.78
2023-04-06T10:13:21.529Z,100515.94
2023-04-06T10:18:23.724Z,100516.22
2023-04-06T10:23:32.392Z,100523.16
2023-04-06T10:28:36.646Z,100499.97
2023-04-06T10:33:38.335Z,100499.75
2023-04-06T10:38:42.641Z,100497.81
2023-04-06T10:43:44.549Z,100484.81
2023-04-06T10:48:47.864Z,100472.38
2023-04-06T10:53:49.925Z,100489.44
2023-04-06T10:58:53.631Z,100488.28
2023-04-06T11:03:57.211Z,100468.81
2023-04-06T11:08:59.462Z,100464.88
2023-04-06T11:14:02.065Z,100462.84
2023-04-06T11:19:06.910Z,100438.25
2023-04-06T11:24:17.061Z,100428.22
2023-04-06T11:29:20.446Z,100418.72
2023-04-06T11:34:24.215Z,100425.22
2023-04-06T11:39:27.720Z,100428.31
2023-04-06T11:44:41.372Z,100417.81
2023-04-06T11:49:45.999Z,100415.88
2023-04-06T11:54:49.226Z,100414.28
2023-04-06T11:59:50.859Z,100394.53
2023-04-06T12:04:52.492Z,100410.59
2023-04-06T12:09:54.010Z,100413.09
2023-04-06T12:14:56.676Z,100406.81
2023-04-06T12:20:05.342Z,100399.72
2023-04-06T12:25:07.838Z,100374.28
2023-04-06T12:30:09.772Z,100387.03
2023-04-06T12:35:12.758Z,100354.31
2023-04-06T12:40:15.845Z,100386.06
2023-04-06T12:45:19.837Z,100387.00
2023-04-06T12:50:21.361Z,100386.19
2023-04-06T12:55:23.162Z,100385.03
2023-04-06T13:00:24.796Z,100380.50
2023-04-06T13:05:27.871Z,100373.72
2023-04-06T13:10:31.032Z,100352.81
2023-04-06T13:15:33.151Z,100353.91
2023-04-06T13:20:34.710Z,100346.16
2023-04-06T13:25:36.369Z,100340.09
2023-04-06T13:30:37.903Z,100344.66
2023-04-06T13:35:39.436Z,100341.94
2023-04-06T13:40:41.654Z,100336.97
2023-04-06T13:45:50.407Z,100330.59
2023-04-06T13:50:53.011Z,100329.28
2023-04-06T13:55:56.090Z,100325.94
2023-04-06T14:01:05.257Z,100329.09
2023-04-06T14:06:29.681Z,100317.72
2023-04-06T14:11:32.822Z,100318.81
2023-04-06T14:16:34.735Z,100323.22
2023-04-06T14:21:36.335Z,100315.41
2023-04-06T14:26:38.799Z,100321.44
2023-04-06T14:31:40.490Z,100320.06
2023-04-06T14:36:42.172Z,100330.00
2023-04-06T14:41:43.729Z,100331.38
2023-04-06T14:46:46.999Z,100332.47
2023-04-06T14:51:48.581Z,100330.22
2023-04-06T14:56:52.650Z,100327.38
2023-04-06T15:01:54.319Z,100329.78
2023-04-06T15:06:55.950Z,100327.69
2023-04-06T15:11:57.505Z,100329.28
2023-04-06T15:16:59.015Z,100337.56
2023-04-06T15:22:01.218Z,100335.00
2023-04-06T15:27:03.170Z,100330.94
2023-04-06T15:32:04.839Z,100336.03
2023-04-06T15:37:06.695Z,100334.03
2023-04-06T15:42:08.216Z,100336.19
2023-04-06T15:47:09.806Z,100338.00
2023-04-06T15:52:11.438Z,100331.63
2023-04-06T15:57:13.018Z,100325.72
2023-04-06T16:02:14.622Z,100331.78
2023-04-06T16:07:16.308Z,100329.66
2023-04-06T16:12:18.823Z,100348.25
2023-04-06T16:17:20.509Z,100326.84
2023-04-06T16:22:22.270Z,100335.75
2023-04-06T16:27:24.033Z,100333.31
2023-04-06T16:32:25.655Z,100345.31
2023-04-06T16:37:29.658Z,100353.47
2023-04-06T16:42:31.398Z,100357.97
2023-04-06T16:47:33.047Z,100367.69
2023-04-06T16:52:34.847Z,100372.91
2023-04-06T16:57:36.468Z,100369.28
2023-04-06T17:02:38.213Z,100373.94
2023-04-06T17:07:39.815Z,100368.84
2023-04-06T17:12:41.395Z,100376.78
2023-04-06T17:17:42.937Z,100381.44
2023-04-06T17:22:46.625Z,100384.53
2023-04-06T17:27:48.288Z,100388.53
2023-04-06T17:32:50.140Z,100400.19
2023-04-06T17:37:51.771Z,100401.66
2023-04-06T17:42:53.394Z,100403.63
2023-04-06T17:47:54.958Z,100415.22
2023-04-06T17:52:56.596Z,100427.59
2023-04-06T17:57:58.118Z,100430.47
2023-04-06T18:02:59.765Z,100445.13
2023-04-06T18:08:01.426Z,100454.72
2023-04-06T18:13:03.047Z,100454.38
2023-04-06T18:18:07.378Z,100458.31
2023-04-06T18:23:09.042Z,100467.63
2023-04-06T18:28:11.362Z,100472.16
2023-04-06T18:33:12.872Z,100474.47
2023-04-06T18:38:15.411Z,100485.03
2023-04-06T18:43:17.001Z,100485.50
2023-04-06T18:48:18.579Z,100491.03
2023-04-06T18:53:21.168Z,100505.19
2023-04-06T18:58:22.934Z,100509.22
2023-04-06T19:03:24.658Z,100513.72
2023-04-06T19:08:26.399Z,100520.91
2023-04-06T19:13:28.726Z,100539.25
2023-04-06T19:18:30.411Z,100542.84
2023-04-06T19:23:33.885Z,100542.03
2023-04-06T19:28:35.656Z,100547.13
2023-04-06T19:33:39.047Z,100541.59
2023-04-06T19:38:40.959Z,100543.94
2023-04-06T19:43:42.728Z,100539.97
2023-04-06T19:48:44.342Z,100539.97
2023-04-06T19:53:45.920Z,100538.28
2023-04-06T19:58:49.990Z,100539.03
2023-04-06T20:03:52.133Z,100538.34
2023-04-06T20:08:53.758Z,100531.84
2023-04-06T20:13:55.323Z,100533.94
2023-04-06T20:18:56.909Z,100522.38
2023-04-06T20:23:58.442Z,100526.81
2023-04-06T20:29:00.008Z,100513.81
2023-04-06T20:34:02.062Z,100504.19
2023-04-06T20:39:03.761Z,100494.13
2023-04-06T20:44:05.401Z,100486.16
2023-04-06T20:49:09.960Z,100476.88
2023-04-06T20:54:11.648Z,100469.72
2023-04-06T20:59:13.205Z,100465.94
2023-04-06T21:04:14.999Z,100453.38
2023-04-06T21:09:16.849Z,100444.16
2023-04-06T21:14:19.737Z,100445.00
2023-04-06T21:19:23.008Z,100422.56
2023-04-06T21:24:24.555Z,100422.38
2023-04-06T21:29:26.101Z,100420.88
2023-04-06T21:34:27.785Z,100421.09
2023-04-06T21:39:29.326Z,100436.63
2023-04-06T21:44:30.956Z,100424.66
2023-04-06T21:49:32.515Z,100420.06
2023-04-06T21:54:34.552Z,100412.31
2023-04-06T21:59:36.090Z,100411.28
2023-04-06T22:04:37.906Z,100395.97
2023-04-06T22:09:39.869Z,100388.22
2023-04-06T22:14:41.817Z,100384.84
2023-04-06T22:19:43.350Z,100394.63
2023-04-06T22:24:44.872Z,100384.94
2023-04-06T22:29:46.425Z,100395.16
2023-04-06T22:34:48.035Z,100393.25
2023-04-06T22:39:49.621Z,100385.91
2023-04-06T22:44:51.145Z,100376.94
2023-04-06T22:49:52.694Z,100370.06
2023-04-06T22:54:54.361Z,100370.31
2023-04-06T22:59:56.131Z,100367.56
2023-04-06T23:04:57.646Z,100355.63
2023-04-06T23:09:59.494Z,100351.59
2023-04-06T23:15:01.378Z,100343.22
2023-04-06T23:20:05.469Z,100338.16
2023-04-06T23:25:08.046Z,100351.91
2023-04-06T23:30:09.869Z,100351.06
2023-04-06T23:35:11.424Z,100358.78
2023-04-06T23:40:12.944Z,100362.53
2023-04-06T23:45:14.463Z,100368.47
2023-04-06T23:50:16.019Z,100355.97
2023-04-06T23:55:17.618Z,100348.47
